KBOI/BOI METAR and TAF weather

Enter ICAO airport designator
Station Type Date Time Source
KBOI METAR 2021/09/16 20:53 UTC NOAA

KBOI 162053Z 29012KT 10SM CLR 21/M04 A3002 RMK AO2 SLP146 T02111044 58008


Station Type Date Time Source
KBOI Decoded METAR 2021/09/16 20:53 UTC NOAA

BOISE AIR TERMINAL, ID, United States (KBOI) 43-34N 116-14W 875M
Sep 16, 2021 - 04:53 PM EDT / 2021.09.16 2053 UTC
Wind: from the WNW (290 degrees) at 14 MPH (12 KT):0
Visibility: 10 mile(s):0
Sky conditions: clear
Temperature: 70.0 F (21.1 C)
Dew Point: 24.1 F (-4.4 C)
Relative Humidity: 17%
Pressure (altimeter): 30.02 in. Hg (1016 hPa)
Pressure tendency: 0.02 inches (0.8 hPa) lower than three hours ago
ob: KBOI 162053Z 29012KT 10SM CLR 21/M04 A3002 RMK AO2 SLP146 T02111044 58008
cycle: 21

Station Type Date Time Source
KBOI TAF 2021/09/16 18:33 UTC NOAA

TAF KBOI 161731Z 1618/1718 30012KT P6SM SCT200
FM170100 31007KT P6SM SKC
FM170800 14010KT P6SM SKC
FM171600 14005KT P6SM SKC

Example: see airport list